Time;durP1;ratioP1;P1;durP2;ratioP2;P2;SDS_P1;SDS_P2;PMS_P1;PMS_P2;Temp;Humidity;BMP_temperature;BMP_pressure;BME280_temperature;BME280_humidity;BME280_pressure;Samples;Min_cycle;Max_cycle;Signal;HPM_P1;HPM_P2
2022/02/23 00:01:40;;;;;;;11.00;1.50;;;;;;;4.66;93.01;100899.98;108196;1277;61259;-81
2022/02/23 00:04:07;;;;;;;12.50;1.50;;;;;;;4.66;92.95;100913.27;108292;1277;60482;-82
2022/02/23 00:06:33;;;;;;;23.60;2.50;;;;;;;4.68;92.93;100915.55;107930;1278;60392;-82
2022/02/23 00:09:00;;;;;;;11.20;1.70;;;;;;;4.71;92.82;100918.50;108255;1277;59241;-82
2022/02/23 00:11:26;;;;;;;14.40;1.90;;;;;;;4.73;92.90;100921.80;108040;1277;59106;-82
2022/02/23 00:13:52;;;;;;;12.90;1.80;;;;;;;4.74;92.88;100927.64;108086;1278;59170;-80
2022/02/23 00:16:20;;;;;;;16.30;2.90;;;;;;;4.78;92.47;100936.05;108135;1277;59658;-82
2022/02/23 00:18:47;;;;;;;16.00;3.00;;;;;;;4.81;92.48;100932.33;108129;1278;74941;-82
2022/02/23 00:21:15;;;;;;;15.30;1.80;;;;;;;4.83;92.29;100937.79;108098;1278;72249;-82
2022/02/23 00:23:42;;;;;;;8.50;1.50;;;;;;;4.82;92.50;100937.80;107942;1278;73724;-82
2022/02/23 00:26:09;;;;;;;13.10;1.90;;;;;;;4.83;92.32;100939.85;108108;1278;59181;-81
2022/02/23 00:28:35;;;;;;;8.60;2.10;;;;;;;4.83;92.29;100940.19;108105;1278;61786;-82
2022/02/23 00:31:02;;;;;;;10.40;1.80;;;;;;;4.81;92.16;100944.19;108118;1277;59336;-82
2022/02/23 00:33:32;;;;;;;11.60;2.00;;;;;;;4.79;92.22;100937.08;108110;1277;72192;-82
2022/02/23 00:35:59;;;;;;;7.80;1.70;;;;;;;4.76;92.10;100946.91;108054;1278;73921;-80
2022/02/23 00:38:25;;;;;;;13.60;3.50;;;;;;;4.75;91.94;100951.91;108152;1277;59074;-82
2022/02/23 00:40:52;;;;;;;20.60;3.80;;;;;;;4.73;91.78;100957.17;108011;1279;59096;-82
2022/02/23 00:43:18;;;;;;;16.80;1.80;;;;;;;4.70;92.10;100963.91;108100;1277;73602;-81
2022/02/23 00:45:45;;;;;;;10.10;2.30;;;;;;;4.67;91.88;100962.77;108138;1277;59524;-81
2022/02/23 00:48:11;;;;;;;17.70;1.50;;;;;;;4.66;92.05;100966.90;108092;1277;59850;-81
2022/02/23 00:50:38;;;;;;;10.50;1.80;;;;;;;4.62;92.21;100968.48;108111;1278;59705;-82
2022/02/23 00:53:04;;;;;;;13.70;1.90;;;;;;;4.58;92.01;100975.96;108110;1278;59075;-82
2022/02/23 00:55:31;;;;;;;10.80;1.80;;;;;;;4.57;92.18;100987.10;108032;1280;59549;-81
2022/02/23 00:57:57;;;;;;;14.40;2.20;;;;;;;4.57;92.13;100983.98;108164;1277;59197;-82
2022/02/23 01:00:24;;;;;;;7.30;2.50;;;;;;;4.53;92.17;100989.03;108094;1277;59261;-82
2022/02/23 01:02:53;;;;;;;7.40;2.20;;;;;;;4.47;92.32;100995.05;108062;1278;63010;-82
2022/02/23 01:05:20;;;;;;;8.70;2.00;;;;;;;4.46;92.74;100994.45;108150;1278;60324;-83
2022/02/23 01:07:47;;;;;;;15.10;2.50;;;;;;;4.44;92.68;101005.66;107956;1277;75966;-81
2022/02/23 01:10:13;;;;;;;13.80;3.80;;;;;;;4.44;92.82;101009.55;108103;1278;59283;-82
2022/02/23 01:12:39;;;;;;;7.80;1.80;;;;;;;4.44;92.91;101017.95;108138;1277;59229;-81
2022/02/23 01:15:07;;;;;;;12.90;1.50;;;;;;;4.46;93.13;101020.57;108183;1276;59205;-81
2022/02/23 01:17:34;;;;;;;15.20;2.40;;;;;;;4.51;92.84;101027.73;108015;1277;62097;-82
2022/02/23 01:20:00;;;;;;;9.40;1.90;;;;;;;4.59;92.81;101022.86;108005;1277;75318;-81
2022/02/23 01:22:27;;;;;;;20.30;2.80;;;;;;;4.64;92.31;101019.95;108276;1277;71344;-82
2022/02/23 01:24:53;;;;;;;7.40;1.70;;;;;;;4.68;92.11;101024.48;108224;1277;59522;-81
2022/02/23 01:27:20;;;;;;;19.90;2.60;;;;;;;4.75;91.64;101029.04;108214;1277;59098;-83
2022/02/23 01:29:46;;;;;;;9.50;1.80;;;;;;;4.77;91.29;101029.02;108255;1277;59646;-81
2022/02/23 01:32:16;;;;;;;12.50;2.10;;;;;;;4.80;90.78;101041.23;108286;1277;59274;-82
2022/02/23 01:34:42;;;;;;;12.30;2.10;;;;;;;4.85;90.54;101039.77;108046;1277;71342;-81
2022/02/23 01:37:09;;;;;;;10.40;1.50;;;;;;;4.91;90.30;101040.45;108204;1277;73851;-81
2022/02/23 01:39:35;;;;;;;7.20;1.90;;;;;;;4.94;90.35;101050.05;107934;1277;62513;-82
2022/02/23 01:42:06;;;;;;;15.40;1.70;;;;;;;4.95;90.35;101045.29;108247;1277;60578;-81
2022/02/23 01:44:33;;;;;;;11.20;2.40;;;;;;;4.94;90.37;101049.16;108192;1277;74562;-81
2022/02/23 01:47:00;;;;;;;10.10;1.50;;;;;;;4.96;89.80;101055.89;108284;1277;71175;-84
2022/02/23 01:49:26;;;;;;;16.80;3.70;;;;;;;4.98;89.98;101068.48;108141;1277;72899;-82
2022/02/23 01:51:53;;;;;;;7.00;2.00;;;;;;;4.98;90.18;101055.48;108246;1277;59195;-81
2022/02/23 01:54:20;;;;;;;15.80;2.00;;;;;;;4.97;90.21;101071.16;108244;1277;59079;-80
2022/02/23 01:56:46;;;;;;;22.70;1.80;;;;;;;4.97;90.21;101067.16;108037;1277;74682;-81
2022/02/23 01:59:13;;;;;;;11.90;2.50;;;;;;;4.95;90.57;101078.20;108464;1268;58968;-82
2022/02/23 02:01:39;;;;;;;12.00;1.80;;;;;;;4.93;90.38;101082.89;108209;1277;74624;-81
2022/02/23 02:04:06;;;;;;;7.60;1.80;;;;;;;4.91;90.65;101082.68;108184;1277;59167;-81
2022/02/23 02:06:32;;;;;;;12.70;1.80;;;;;;;4.88;90.85;101080.83;108081;1277;60606;-82
2022/02/23 02:08:59;;;;;;;11.40;2.90;;;;;;;4.86;90.87;101094.38;108121;1277;59095;-82
2022/02/23 02:11:26;;;;;;;9.60;2.30;;;;;;;4.85;91.02;101101.59;108041;1277;59443;-82
2022/02/23 02:13:52;;;;;;;9.80;1.70;;;;;;;4.85;90.89;101101.07;107967;1277;73961;-81
2022/02/23 02:16:19;;;;;;;13.10;2.20;;;;;;;4.82;90.94;101097.43;108162;1277;61443;-84
2022/02/23 02:18:45;;;;;;;19.10;2.40;;;;;;;4.80;90.80;101106.73;108088;1278;59156;-81
2022/02/23 02:21:13;;;;;;;17.30;2.40;;;;;;;4.78;90.97;101104.64;108184;1277;74640;-82
2022/02/23 02:23:40;;;;;;;4.40;1.50;;;;;;;4.76;90.93;101107.46;108010;1278;59061;-81
2022/02/23 02:26:06;;;;;;;12.40;1.80;;;;;;;4.70;91.22;101104.45;108209;1277;59672;-81
2022/02/23 02:28:32;;;;;;;9.40;2.00;;;;;;;4.66;91.27;101116.70;108107;1277;59192;-81
2022/02/23 02:30:59;;;;;;;5.40;1.60;;;;;;;4.65;91.17;101111.98;108219;1277;59084;-81
2022/02/23 02:33:25;;;;;;;28.20;3.90;;;;;;;4.65;91.32;101124.97;108194;1277;59345;-81
2022/02/23 02:35:52;;;;;;;11.90;1.30;;;;;;;4.65;91.25;101115.00;108192;1277;59297;-81
2022/02/23 02:38:18;;;;;;;5.90;1.40;;;;;;;4.62;91.66;101124.71;108213;1277;60018;-82
2022/02/23 02:40:45;;;;;;;9.00;1.90;;;;;;;4.61;91.73;101124.48;107940;1278;59197;-81
2022/02/23 02:43:11;;;;;;;10.70;1.90;;;;;;;4.61;91.75;101124.84;108128;1277;59156;-82
2022/02/23 02:45:41;;;;;;;18.00;2.70;;;;;;;4.60;91.86;101130.81;108178;1277;76009;-81
2022/02/23 02:48:07;;;;;;;9.90;1.90;;;;;;;4.60;92.12;101129.96;108216;1277;71481;-82
2022/02/23 02:50:34;;;;;;;22.10;2.70;;;;;;;4.60;92.31;101144.30;108045;1277;59193;-81
2022/02/23 02:53:00;;;;;;;10.60;1.90;;;;;;;4.60;92.18;101146.04;108069;1277;59172;-81
2022/02/23 02:55:27;;;;;;;18.10;3.50;;;;;;;4.60;92.48;101149.40;107973;1279;60739;-81
2022/02/23 02:57:53;;;;;;;10.90;2.00;;;;;;;4.59;92.68;101156.85;108083;1277;60375;-82
2022/02/23 03:00:20;;;;;;;7.90;1.40;;;;;;;4.58;92.71;101162.34;107961;1280;59099;-81
2022/02/23 03:02:46;;;;;;;12.20;2.00;;;;;;;4.55;92.91;101171.54;108075;1277;59404;-81
2022/02/23 03:05:13;;;;;;;14.80;1.90;;;;;;;4.52;92.74;101166.71;108034;1277;59197;-81
2022/02/23 03:07:39;;;;;;;9.60;1.10;;;;;;;4.48;93.00;101173.46;108093;1278;59197;-81
2022/02/23 03:10:06;;;;;;;10.20;1.70;;;;;;;4.45;93.10;101174.55;108039;1277;59133;-81
2022/02/23 03:12:34;;;;;;;6.10;1.00;;;;;;;4.41;93.30;101174.93;107985;1279;71308;-80
2022/02/23 03:15:01;;;;;;;11.00;2.00;;;;;;;4.40;93.57;101196.73;107925;1280;73013;-80
2022/02/23 03:17:29;;;;;;;10.70;2.10;;;;;;;4.41;93.34;101193.46;107940;1278;60441;-82
2022/02/23 03:19:55;;;;;;;11.30;2.20;;;;;;;4.43;93.51;101195.41;107920;1280;61797;-81
2022/02/23 03:22:22;;;;;;;10.60;1.90;;;;;;;4.44;93.46;101199.54;107937;1277;59166;-81
2022/02/23 03:24:48;;;;;;;13.20;2.60;;;;;;;4.44;93.45;101206.54;108022;1277;59357;-81
2022/02/23 03:27:15;;;;;;;13.10;2.10;;;;;;;4.45;93.46;101213.45;107984;1279;73006;-81
2022/02/23 03:29:41;;;;;;;2.70;1.20;;;;;;;4.46;93.18;101217.58;107964;1279;59153;-82
2022/02/23 03:32:08;;;;;;;5.40;1.80;;;;;;;4.47;92.93;101219.61;107927;1280;60566;-81
2022/02/23 03:34:35;;;;;;;9.20;1.60;;;;;;;4.49;92.63;101223.30;107910;1279;74912;-81
2022/02/23 03:37:01;;;;;;;14.50;3.80;;;;;;;4.50;92.84;101222.70;107963;1278;73294;-81
2022/02/23 03:39:28;;;;;;;13.10;2.30;;;;;;;4.49;92.56;101230.30;108027;1277;72897;-80
2022/02/23 03:41:54;;;;;;;14.30;2.20;;;;;;;4.50;92.17;101230.96;107884;1279;61161;-80
2022/02/23 03:44:21;;;;;;;8.90;1.60;;;;;;;4.49;91.82;101239.05;107926;1278;59128;-81
2022/02/23 03:46:47;;;;;;;4.30;0.80;;;;;;;4.51;91.58;101238.09;107906;1278;60549;-81
2022/02/23 03:49:14;;;;;;;9.00;1.90;;;;;;;4.50;91.41;101244.61;107931;1280;59895;-82
2022/02/23 03:51:41;;;;;;;15.40;2.40;;;;;;;4.50;91.14;101245.33;107936;1278;73929;-82
2022/02/23 03:54:08;;;;;;;8.10;1.40;;;;;;;4.49;91.14;101253.60;107876;1278;60141;-80
2022/02/23 03:56:40;;;;;;;8.80;2.00;;;;;;;4.47;90.78;101254.26;108122;1277;59076;-80
2022/02/23 03:59:08;;;;;;;7.10;2.10;;;;;;;4.45;90.66;101255.70;107911;1279;75102;-80
2022/02/23 04:01:40;;;;;;;16.50;3.70;;;;;;;4.42;90.80;101265.73;107969;1277;72180;-80
2022/02/23 04:04:08;;;;;;;8.60;1.40;;;;;;;4.37;90.79;101269.81;108053;1277;73073;-80
2022/02/23 04:06:36;;;;;;;8.00;1.20;;;;;;;4.32;90.61;101267.05;107849;1280;61493;-80
2022/02/23 04:09:05;;;;;;;9.80;2.00;;;;;;;4.27;90.83;101270.08;107949;1279;60384;-80
2022/02/23 04:11:33;;;;;;;17.30;3.70;;;;;;;4.20;91.10;101272.90;107871;1281;75092;-81
2022/02/23 04:13:59;;;;;;;6.00;1.50;;;;;;;4.13;91.11;101282.70;107925;1277;72627;-81
2022/02/23 04:16:26;;;;;;;19.20;3.40;;;;;;;4.07;91.22;101287.86;108065;1277;72595;-81
2022/02/23 04:18:53;;;;;;;10.80;1.50;;;;;;;4.02;91.37;101293.36;107998;1279;59230;-80
2022/02/23 04:21:20;;;;;;;6.30;1.20;;;;;;;3.95;91.74;101304.52;108057;1277;61467;-81
2022/02/23 04:23:47;;;;;;;6.30;1.50;;;;;;;3.91;91.93;101308.73;108018;1277;74943;-81
2022/02/23 04:26:16;;;;;;;6.10;1.10;;;;;;;3.86;92.21;101314.83;108063;1277;72503;-81
2022/02/23 04:28:43;;;;;;;16.60;2.30;;;;;;;3.84;92.05;101321.66;107933;1279;74445;-81
2022/02/23 04:31:09;;;;;;;19.00;2.90;;;;;;;3.80;92.43;101326.10;108019;1277;62192;-80
2022/02/23 04:33:36;;;;;;;9.80;1.40;;;;;;;3.77;92.41;101332.51;108109;1277;59327;-80
2022/02/23 04:36:07;;;;;;;5.90;1.50;;;;;;;3.73;92.46;101334.39;108122;1277;59696;-81
2022/02/23 04:38:37;;;;;;;17.30;3.20;;;;;;;3.71;92.46;101344.13;108096;1277;72540;-80
2022/02/23 04:41:07;;;;;;;15.30;2.10;;;;;;;3.72;92.47;101335.03;108062;1277;71640;-81
2022/02/23 04:43:35;;;;;;;10.70;1.60;;;;;;;3.70;92.63;101345.63;108056;1277;60435;-80
2022/02/23 04:46:11;;;;;;;16.00;2.30;;;;;;;3.69;92.37;101361.27;107839;1280;62111;-80
2022/02/23 04:48:43;;;;;;;7.10;1.50;;;;;;;3.71;92.35;101354.10;108149;1277;74974;-80
2022/02/23 04:51:10;;;;;;;14.90;2.00;;;;;;;3.71;92.57;101349.05;108062;1277;71189;-81
2022/02/23 04:53:37;;;;;;;14.20;2.10;;;;;;;3.70;92.17;101354.36;107985;1277;72873;-80
2022/02/23 04:56:07;;;;;;;5.40;1.20;;;;;;;3.67;92.54;101357.88;108053;1277;61440;-80
2022/02/23 04:58:34;;;;;;;17.20;2.00;;;;;;;3.64;92.57;101359.83;108096;1277;60283;-81
2022/02/23 05:01:00;;;;;;;8.60;1.80;;;;;;;3.63;92.38;101361.48;107924;1280;75853;-81
2022/02/23 05:03:27;;;;;;;15.20;3.90;;;;;;;3.63;92.78;101365.04;108116;1277;72310;-80
2022/02/23 05:05:53;;;;;;;10.40;2.20;;;;;;;3.61;92.79;101371.13;107955;1279;73922;-80
2022/02/23 05:08:20;;;;;;;4.90;1.50;;;;;;;3.59;93.04;101386.09;108116;1277;59858;-80
2022/02/23 05:10:47;;;;;;;20.00;2.50;;;;;;;3.59;93.31;101380.04;108055;1277;61633;-80
2022/02/23 05:13:14;;;;;;;12.80;2.50;;;;;;;3.58;93.41;101388.98;108102;1277;75194;-80
2022/02/23 05:15:40;;;;;;;17.80;2.20;;;;;;;3.58;93.36;101391.27;107937;1277;72335;-80
2022/02/23 05:18:08;;;;;;;13.60;1.70;;;;;;;3.58;93.34;101392.70;107987;1278;72987;-81
2022/02/23 05:20:35;;;;;;;13.10;1.70;;;;;;;3.58;93.56;101398.80;107981;1277;61438;-80
2022/02/23 05:23:03;;;;;;;9.70;1.40;;;;;;;3.59;93.51;101403.29;108132;1277;60523;-81
2022/02/23 05:25:29;;;;;;;10.90;1.90;;;;;;;3.60;93.68;101407.89;108074;1277;75919;-81
2022/02/23 05:27:56;;;;;;;9.80;2.00;;;;;;;3.60;93.33;101413.86;107946;1279;59105;-80
2022/02/23 05:30:22;;;;;;;10.80;1.90;;;;;;;3.59;93.70;101417.24;107921;1279;59117;-80
2022/02/23 05:32:49;;;;;;;18.50;2.90;;;;;;;3.57;93.52;101417.02;108096;1277;62665;-80
2022/02/23 05:35:15;;;;;;;8.80;1.30;;;;;;;3.56;94.03;101424.98;108125;1277;59664;-80
2022/02/23 05:37:42;;;;;;;16.00;1.90;;;;;;;3.57;93.93;101427.75;108114;1277;59216;-81
2022/02/23 05:40:09;;;;;;;16.60;2.50;;;;;;;3.57;94.05;101434.35;108003;1277;59347;-80
2022/02/23 05:42:35;;;;;;;12.30;2.30;;;;;;;3.59;93.95;101440.39;107904;1279;72770;-81
2022/02/23 05:45:02;;;;;;;11.80;2.10;;;;;;;3.62;93.97;101443.96;108049;1278;59141;-80
2022/02/23 05:47:28;;;;;;;16.00;2.30;;;;;;;3.66;94.16;101442.41;108067;1277;60284;-80
2022/02/23 05:49:55;;;;;;;12.20;2.50;;;;;;;3.68;93.89;101445.47;108066;1277;59086;-80
2022/02/23 05:52:22;;;;;;;13.90;3.10;;;;;;;3.70;93.41;101452.50;108097;1277;72598;-81
2022/02/23 05:54:48;;;;;;;13.70;2.60;;;;;;;3.71;93.52;101460.35;107975;1279;73341;-80
2022/02/23 05:57:16;;;;;;;17.40;2.50;;;;;;;3.74;93.20;101463.59;107920;1280;59448;-81
2022/02/23 05:59:46;;;;;;;7.70;1.60;;;;;;;3.76;93.35;101467.64;108028;1277;61694;-81
2022/02/23 06:02:14;;;;;;;11.00;2.10;;;;;;;3.79;93.28;101472.82;108039;1277;74876;-81
2022/02/23 06:04:40;;;;;;;7.90;1.90;;;;;;;3.82;92.94;101472.79;108037;1277;72744;-80
2022/02/23 06:07:07;;;;;;;6.30;2.00;;;;;;;3.84;92.75;101477.58;108089;1277;74023;-81
2022/02/23 06:09:34;;;;;;;10.70;1.90;;;;;;;3.86;92.51;101484.60;107941;1279;59294;-81
2022/02/23 06:12:01;;;;;;;15.90;2.30;;;;;;;3.87;92.42;101486.28;108043;1277;60332;-81
2022/02/23 06:14:29;;;;;;;10.20;2.50;;;;;;;3.87;91.97;101490.96;107917;1279;75237;-77
2022/02/23 06:16:56;;;;;;;10.10;1.70;;;;;;;3.88;92.01;101490.17;108042;1277;72810;-77
2022/02/23 06:19:22;;;;;;;10.30;2.00;;;;;;;3.88;91.99;101492.34;108110;1277;59243;-78
2022/02/23 06:21:49;;;;;;;6.60;1.50;;;;;;;3.86;91.88;101493.70;107903;1278;59209;-77
2022/02/23 06:24:16;;;;;;;9.00;1.70;;;;;;;3.84;92.13;101497.48;108146;1277;59121;-77
2022/02/23 06:26:43;;;;;;;7.20;1.00;;;;;;;3.84;92.24;101504.47;107750;1277;74681;-77
2022/02/23 06:29:10;;;;;;;10.10;2.40;;;;;;;3.87;92.11;101498.33;108105;1277;72164;-77
2022/02/23 06:31:36;;;;;;;9.30;1.70;;;;;;;3.89;91.97;101500.45;107966;1279;71722;-77
2022/02/23 06:34:03;;;;;;;17.80;2.60;;;;;;;3.91;92.09;101503.67;107991;1278;59220;-78
2022/02/23 06:36:29;;;;;;;29.00;3.20;;;;;;;3.91;92.23;101510.83;108006;1279;59700;-78
2022/02/23 06:38:57;;;;;;;10.50;1.50;;;;;;;3.92;92.04;101510.61;108117;1277;75984;-77
2022/02/23 06:41:26;;;;;;;10.30;2.50;;;;;;;3.93;92.01;101519.95;108090;1279;72183;-77
2022/02/23 06:43:53;;;;;;;8.10;2.10;;;;;;;3.94;92.05;101521.59;108125;1277;73996;-78
2022/02/23 06:46:21;;;;;;;16.20;2.40;;;;;;;3.96;91.77;101524.30;108117;1278;62703;-77
2022/02/23 06:48:49;;;;;;;5.20;1.40;;;;;;;3.97;92.03;101532.77;107978;1280;61119;-77
2022/02/23 06:51:19;;;;;;;6.70;1.30;;;;;;;4.00;91.81;101533.46;108090;1277;75364;-77
2022/02/23 06:53:47;;;;;;;19.00;4.00;;;;;;;4.02;91.82;101541.65;108123;1277;72717;-77
2022/02/23 06:56:14;;;;;;;8.20;1.80;;;;;;;4.04;91.55;101548.38;107997;1279;72698;-77
2022/02/23 06:58:48;;;;;;;10.40;1.70;;;;;;;4.05;91.56;101547.03;108169;1277;61182;-77
2022/02/23 07:01:16;;;;;;;9.00;1.40;;;;;;;4.07;91.18;101555.85;108094;1277;61854;-77
2022/02/23 07:03:45;;;;;;;13.40;2.70;;;;;;;4.09;91.19;101554.62;108069;1280;75973;-78
2022/02/23 07:06:13;;;;;;;10.60;2.20;;;;;;;4.14;91.09;101558.39;108122;1277;72429;-78
2022/02/23 07:08:44;;;;;;;10.10;1.60;;;;;;;4.15;91.10;101559.82;108147;1277;72868;-78
2022/02/23 07:11:11;;;;;;;9.60;1.60;;;;;;;4.19;90.83;101569.00;108149;1277;62440;-77
2022/02/23 07:13:37;;;;;;;10.80;1.80;;;;;;;4.24;90.68;101571.98;107998;1280;61308;-78
2022/02/23 07:16:07;;;;;;;11.70;2.90;;;;;;;4.25;90.77;101569.73;108044;1279;59480;-78
2022/02/23 07:18:33;;;;;;;16.40;2.50;;;;;;;4.27;90.56;101577.18;108174;1277;72696;-78
2022/02/23 07:21:00;;;;;;;13.70;2.60;;;;;;;4.29;90.32;101577.54;108120;1278;72981;-78
2022/02/23 07:23:27;;;;;;;11.60;1.70;;;;;;;4.31;90.64;101576.85;108003;1279;61404;-77
2022/02/23 07:25:56;;;;;;;10.20;1.90;;;;;;;4.34;90.63;101586.50;108130;1277;60577;-77
2022/02/23 07:28:24;;;;;;;13.60;2.90;;;;;;;4.37;90.56;101591.71;108074;1279;74305;-78
2022/02/23 07:31:07;;;;;;;10.60;2.10;;;;;;;4.39;90.50;101580.11;108146;1277;70322;-77
2022/02/23 07:33:37;;;;;;;12.40;1.90;;;;;;;4.40;90.28;101589.33;108151;1277;71996;-77
2022/02/23 07:36:06;;;;;;;14.80;2.60;;;;;;;4.45;90.15;101579.14;108154;1277;61212;-77
2022/02/23 07:38:36;;;;;;;8.80;2.20;;;;;;;4.50;90.27;101588.48;108136;1277;61399;-77
2022/02/23 07:41:03;;;;;;;14.10;2.00;;;;;;;4.53;90.29;101594.71;107121;1279;1265224;-77
2022/02/23 07:43:52;;;;;;;14.70;2.30;;;;;;;4.56;90.22;101589.95;108114;1278;70048;-77
2022/02/23 07:46:20;;;;;;;11.70;2.50;;;;;;;4.60;90.19;101592.61;108070;1277;72319;-78
2022/02/23 07:48:52;;;;;;;5.90;2.00;;;;;;;4.64;90.23;101594.77;108158;1277;61309;-77
2022/02/23 07:51:19;;;;;;;4.90;1.10;;;;;;;4.67;89.85;101589.46;108173;1279;60598;-77
2022/02/23 07:53:48;;;;;;;10.10;1.60;;;;;;;4.71;89.53;101601.42;108194;1277;74687;-77
2022/02/23 07:56:14;;;;;;;11.30;1.50;;;;;;;4.77;89.41;101601.52;108146;1279;71301;-76
2022/02/23 07:58:48;;;;;;;12.20;2.80;;;;;;;4.80;88.86;101616.52;108101;1279;73957;-77
2022/02/23 08:01:34;;;;;;;10.70;1.90;;;;;;;4.85;88.53;101616.45;108159;1277;61460;-77
2022/02/23 08:04:02;;;;;;;12.90;1.70;;;;;;;4.92;88.05;101613.37;108113;1279;59746;-77
2022/02/23 08:06:29;;;;;;;5.80;1.50;;;;;;;4.98;88.07;101623.47;108230;1277;74954;-77
2022/02/23 08:08:56;;;;;;;12.30;2.20;;;;;;;5.01;87.82;101628.95;108135;1279;70322;-77
2022/02/23 08:11:25;;;;;;;11.30;2.30;;;;;;;5.07;88.09;101626.97;108060;1279;74259;-78
2022/02/23 08:13:58;;;;;;;11.50;2.30;;;;;;;5.10;87.89;101628.84;108119;1278;60197;-77
2022/02/23 08:22:03;;;;;;;18.70;2.30;;;;;;;5.17;87.04;101633.86;108064;1277;71051;-77
2022/02/23 08:24:31;;;;;;;16.90;2.90;;;;;;;5.21;86.97;101634.30;108160;1279;72866;-77
2022/02/23 08:26:59;;;;;;;21.40;3.00;;;;;;;5.27;86.87;101637.32;108098;1278;61200;-77
2022/02/23 08:29:25;;;;;;;9.70;1.50;;;;;;;5.35;86.69;101646.62;108131;1279;60283;-77
2022/02/23 08:31:53;;;;;;;11.80;2.20;;;;;;;5.36;85.91;101642.10;108042;1279;75945;-77
2022/02/23 08:34:20;;;;;;;15.10;3.50;;;;;;;5.42;85.72;101646.25;108179;1277;72096;-77
2022/02/23 08:36:47;;;;;;;14.10;2.40;;;;;;;5.55;85.89;101647.19;108133;1278;72957;-76
2022/02/23 08:39:17;;;;;;;13.40;2.90;;;;;;;5.63;85.49;101649.88;108126;1278;61237;-77
2022/02/23 08:41:45;;;;;;;13.00;3.10;;;;;;;5.66;84.35;101655.10;108009;1279;60990;-77
2022/02/23 08:44:21;;;;;;;10.00;1.90;;;;;;;5.65;83.95;101651.96;108145;1279;76044;-77
2022/02/23 08:46:48;;;;;;;7.70;1.40;;;;;;;5.66;83.78;101655.40;108037;1278;70693;-79
2022/02/23 08:49:16;;;;;;;15.20;3.00;;;;;;;5.66;83.33;101660.00;108182;1278;72855;-79
2022/02/23 08:51:46;;;;;;;17.00;3.50;;;;;;;5.66;82.78;101660.98;108160;1277;62664;-78
2022/02/23 08:54:14;;;;;;;15.30;2.30;;;;;;;5.72;83.47;101651.29;108092;1278;60582;-78
2022/02/23 08:56:41;;;;;;;13.90;2.80;;;;;;;5.73;83.49;101652.94;107767;1280;76436;-78
2022/02/23 08:59:08;;;;;;;11.80;1.80;;;;;;;5.72;83.23;101658.82;108083;1278;71487;-78
2022/02/23 09:01:34;;;;;;;8.50;2.70;;;;;;;5.75;82.91;101661.02;108164;1277;73981;-78
2022/02/23 09:04:04;;;;;;;15.20;3.60;;;;;;;5.82;82.68;101658.73;108184;1277;59444;-77
2022/02/23 09:06:34;;;;;;;16.50;2.20;;;;;;;5.90;82.12;101658.48;108131;1278;60444;-78
2022/02/23 09:09:03;;;;;;;8.90;1.50;;;;;;;6.01;81.94;101658.48;108216;1279;76116;-78
2022/02/23 09:11:29;;;;;;;12.30;2.50;;;;;;;6.11;82.13;101662.23;108050;1279;72286;-78
2022/02/23 09:13:56;;;;;;;14.90;2.30;;;;;;;6.18;81.65;101662.10;108080;1279;59095;-77
2022/02/23 09:16:28;;;;;;;14.60;2.30;;;;;;;6.21;80.87;101668.65;108140;1278;61200;-76
2022/02/23 09:18:54;;;;;;;11.50;1.90;;;;;;;6.28;80.58;101664.41;108018;1279;61564;-78
2022/02/23 09:21:21;;;;;;;9.60;2.00;;;;;;;6.36;80.24;101666.28;108132;1278;59095;-77
2022/02/23 09:23:47;;;;;;;7.80;1.20;;;;;;;6.42;79.59;101657.89;108216;1277;59170;-78
2022/02/23 09:26:15;;;;;;;13.70;2.80;;;;;;;6.52;80.03;101656.04;108154;1277;59170;-76
2022/02/23 09:28:43;;;;;;;12.10;2.10;;;;;;;6.61;78.67;101672.33;108135;1278;61631;-76
2022/02/23 09:31:12;;;;;;;7.40;2.00;;;;;;;6.65;77.78;101666.94;108140;1278;60824;-77
2022/02/23 09:33:38;;;;;;;14.50;2.80;;;;;;;6.68;77.41;101664.17;108129;1278;74994;-76
2022/02/23 09:36:08;;;;;;;10.20;3.10;;;;;;;6.73;76.96;101656.72;108027;1279;72289;-76
2022/02/23 09:38:35;;;;;;;8.40;1.80;;;;;;;6.80;76.64;101662.32;108032;1279;72951;-76
2022/02/23 09:41:07;;;;;;;9.30;3.00;;;;;;;6.85;76.03;101670.37;108186;1277;63147;-77
2022/02/23 09:43:34;;;;;;;19.20;2.70;;;;;;;6.88;75.32;101670.95;108135;1279;61659;-77
2022/02/23 09:46:01;;;;;;;10.60;1.70;;;;;;;6.97;76.42;101665.70;108192;1278;59087;-78
2022/02/23 09:48:29;;;;;;;12.80;2.60;;;;;;;7.03;73.97;101667.14;108145;1279;71413;-78
2022/02/23 09:50:58;;;;;;;11.30;2.10;;;;;;;7.08;73.29;101668.60;107842;1279;72636;-77
2022/02/23 09:53:24;;;;;;;10.90;1.90;;;;;;;7.20;74.73;101673.27;108122;1279;62310;-77
2022/02/23 09:55:56;;;;;;;8.80;2.00;;;;;;;7.28;73.86;101674.70;108125;1279;59807;-77
2022/02/23 09:58:26;;;;;;;9.10;1.90;;;;;;;7.31;72.29;101676.91;108136;1278;74956;-77
2022/02/23 10:00:54;;;;;;;6.00;1.40;;;;;;;7.34;72.29;101687.41;108203;1278;72506;-77
2022/02/23 10:03:22;;;;;;;6.60;1.60;;;;;;;7.36;71.54;101672.61;108123;1278;73022;-77
2022/02/23 10:05:48;;;;;;;10.60;2.90;;;;;;;7.41;72.07;101676.40;108177;1279;61625;-77
2022/02/23 10:08:15;;;;;;;10.00;1.90;;;;;;;7.50;72.16;101675.32;108134;1277;59234;-77
2022/02/23 10:11:02;;;;;;;12.90;2.30;;;;;;;7.63;71.38;101678.09;108071;1279;76637;-77
2022/02/23 10:13:32;;;;;;;15.10;3.50;;;;;;;7.69;71.49;101682.45;108156;1279;72563;-76
2022/02/23 10:15:59;;;;;;;8.90;2.60;;;;;;;7.79;71.45;101683.36;108077;1280;73932;-77
2022/02/23 10:18:46;;;;;;;8.20;1.70;;;;;;;7.86;70.31;101685.95;108128;1279;64109;-77
2022/02/23 10:21:17;;;;;;;11.00;1.40;;;;;;;7.90;69.66;101682.44;107966;1279;60293;-78
2022/02/23 10:23:44;;;;;;;7.20;1.50;;;;;;;7.96;70.14;101681.04;108174;1279;76078;-76
2022/02/23 10:26:12;;;;;;;8.30;2.00;;;;;;;8.02;70.30;101689.69;108132;1278;71122;-76
2022/02/23 10:28:39;;;;;;;9.20;1.90;;;;;;;8.05;69.67;101686.77;108149;1278;74034;-77
2022/02/23 10:31:09;;;;;;;8.50;1.60;;;;;;;8.04;69.48;101682.45;108033;1278;61992;-76
2022/02/23 10:33:38;;;;;;;10.00;1.90;;;;;;;8.12;69.84;101683.13;107979;1279;62636;-76
2022/02/23 10:36:22;;;;;;;5.70;1.20;;;;;;;8.23;69.54;101688.88;107903;1279;74907;-76
2022/02/23 10:38:57;;;;;;;7.70;1.70;;;;;;;8.33;69.54;101691.02;108136;1277;71184;-76
2022/02/23 10:41:31;;;;;;;11.30;1.90;;;;;;;8.37;68.60;101690.48;108058;1278;72929;-76
2022/02/23 10:43:59;;;;;;;7.70;3.20;;;;;;;8.42;68.62;101691.83;108121;1278;60410;-78
2022/02/23 10:46:25;;;;;;;7.00;1.30;;;;;;;8.43;67.85;101690.35;108105;1277;60343;-76
2022/02/23 10:49:01;;;;;;;7.40;1.50;;;;;;;8.46;67.03;101691.16;108201;1278;59449;-76
2022/02/23 10:51:32;;;;;;;8.60;1.80;;;;;;;8.50;66.59;101680.86;108144;1278;71402;-76
2022/02/23 10:54:06;;;;;;;7.10;0.80;;;;;;;8.55;66.85;101688.35;108171;1277;73007;-76
2022/02/23 10:56:36;;;;;;;10.50;1.40;;;;;;;8.57;65.79;101693.47;108041;1279;66144;-76
2022/02/23 10:59:15;;;;;;;7.90;1.00;;;;;;;8.60;65.01;101689.52;108048;1279;59636;-76
2022/02/23 11:01:43;;;;;;;8.30;1.40;;;;;;;8.65;64.52;101695.21;108130;1277;76164;-76
2022/02/23 11:04:10;;;;;;;9.00;1.40;;;;;;;8.61;64.43;101693.52;108156;1277;70141;-77
2022/02/23 11:06:38;;;;;;;6.40;1.40;;;;;;;8.62;64.18;101696.75;108044;1279;74471;-77
2022/02/23 11:09:07;;;;;;;7.30;1.60;;;;;;;8.70;63.16;101686.66;108134;1278;61405;-77
2022/02/23 11:11:34;;;;;;;8.00;1.30;;;;;;;8.82;63.09;101703.08;108125;1277;59636;-77
2022/02/23 11:14:03;;;;;;;2.50;1.00;;;;;;;8.78;63.38;101691.95;108046;1279;75899;-76
2022/02/23 11:16:31;;;;;;;10.20;1.50;;;;;;;8.81;64.03;101691.17;108047;1279;71353;-76
2022/02/23 11:19:00;;;;;;;5.30;1.40;;;;;;;8.86;63.57;101686.33;108139;1278;72932;-77
2022/02/23 11:21:29;;;;;;;7.40;1.10;;;;;;;8.95;62.90;101692.35;108062;1278;62309;-76
2022/02/23 11:23:58;;;;;;;9.50;1.60;;;;;;;9.02;62.56;101690.15;108074;1278;61579;-77
2022/02/23 11:26:29;;;;;;;6.80;1.00;;;;;;;8.92;60.95;101690.37;107909;1279;74051;-77
2022/02/23 11:29:23;;;;;;;6.80;1.90;;;;;;;8.90;61.24;101689.05;108130;1278;72666;-76